Tatitlek, AK (99677)

5:45 PM AKST on November 22, 2014 (GMT -0900)
AKDOT Glenn Highway @ Gunsight Mountain MP 11 | Change Station
CLOSE
Current Station
Personal Weather Station
Location: Tatitlek, AK
Elevation: 3234 ft
Nearby Weather Stations

Elev 3234 ft 61.83 °N, 147.41 °W | Updated 45 minutes ago

Overcast
Overcast
13.0 °F
Feels Like 3 °F
N
7.0
Wind Variable Wind from North
Gusts 13.0 mph

Today
High -- | Low -- °F
--% Chance of Precip.
Yesterday
High -- | Low -- °F
Precip. -- in
9:12 AM 3:56 PM
New Moon, 0% visible
Pressure 29.26 in
Visibility 8.0 miles
Clouds Few 200 ft
Mostly Cloudy 4000 ft
Overcast 5500 ft
Windchill 3 °F
Dew Point 10.0 °F
Humidity 88%
Rainfall 0.00 in
Snow Depth Not available.
UV 0 out of 12
Pollen Not available.
Air Quality Not available.
Flu Activity Not available.
METAR PAVD 230236Z 00000KT 8SM FEW002 BKN040 OVC055 01/M03 A2926 RMK AO1 0147Z WEA: -SN TWR WND 16004KT

More Conditions Fewer Conditions

Pressure 29.26 in
Visibility 8.0 miles
Clouds Few 200 ft
Mostly Cloudy 4000 ft
Overcast 5500 ft
Windchill 3 °F
Dew Point 10.0 °F
Humidity 88%
Rainfall 0.00 in
Snow Depth Not available.
UV 0 out of 12
Pollen Not available.
Air Quality Not available.
Flu Activity Not available.
METAR PAVD 230236Z 00000KT 8SM FEW002 BKN040 OVC055 01/M03 A2926 RMK AO1 0147Z WEA: -SN TWR WND 16004KT

More Conditions Fewer Conditions

10-Day Weather Forecast

Almanac

Astronomy

Nov. 22, 2014 Rise Set
Actual Time
Civil Twilight
Nautical Twilight
Astronomical Twilight
Moon
Length of Visible Light
Length of Day
Tomorrow will be .
, % of the Moon is Illuminated

Today's Extremes

State Highs State Lows

Community

WunderPhotos

Upload Photos

1,772,978 photos uploaded!

WunderBlogs® & News

Nearby

Air Quality

  Air Quality AQ Index Pollutant
Not available.

Snow Depth

Station Depth Elevation

Earthquake Activity

City Distance Mag. Time & Date
Minimum magnitude displayed is 2.5.

Coastal Water Temperatures

Place Temperature

Nearby Weather Stations